createdAt,value
2017-10-01T00:00:59.147Z,99.99
2017-10-01T00:02:19.867Z,99.99
2017-10-01T00:03:40.283Z,99.99
2017-10-01T00:05:00.475Z,99.99
2017-10-01T00:06:20.831Z,99.99
2017-10-01T00:07:41.395Z,99.99
2017-10-01T00:09:01.803Z,99.99
2017-10-01T00:10:22.754Z,99.99
2017-10-01T00:11:43.107Z,99.99
2017-10-01T00:13:03.838Z,99.99
2017-10-01T00:14:24.044Z,99.99
2017-10-01T00:15:44.540Z,99.99
2017-10-01T00:17:04.906Z,99.99
2017-10-01T00:18:25.636Z,99.99
2017-10-01T00:19:46.997Z,99.99
2017-10-01T00:21:07.363Z,99.99
2017-10-01T00:22:27.697Z,99.99
2017-10-01T00:23:49.438Z,99.99
2017-10-01T00:25:09.693Z,99.99
2017-10-01T00:26:30.101Z,99.99
2017-10-01T00:27:50.798Z,99.99
2017-10-01T00:29:11.170Z,99.99
2017-10-01T00:30:31.415Z,99.99
2017-10-01T00:31:51.602Z,99.99
2017-10-01T00:33:11.743Z,99.99
2017-10-01T00:34:32.849Z,99.99
2017-10-01T00:35:53.304Z,99.99
2017-10-01T00:37:13.612Z,99.99
2017-10-01T00:38:33.911Z,99.99
2017-10-01T00:39:54.603Z,99.99
2017-10-01T00:41:15.481Z,99.99
2017-10-01T00:42:35.606Z,99.99
2017-10-01T00:43:56.085Z,99.99
2017-10-01T00:45:17.058Z,99.99
2017-10-01T00:46:37.302Z,99.99
2017-10-01T00:47:57.559Z,99.99
2017-10-01T00:49:17.893Z,99.99
2017-10-01T00:50:38.092Z,99.99
2017-10-01T00:51:58.631Z,99.99
2017-10-01T00:53:18.882Z,99.99
2017-10-01T00:54:39.274Z,99.99
2017-10-01T00:56:00.187Z,99.99
2017-10-01T00:57:20.606Z,99.99
2017-10-01T00:58:40.800Z,99.99
2017-10-01T01:00:01.236Z,99.99
2017-10-01T01:01:21.675Z,99.99
2017-10-01T01:02:42.015Z,99.99
2017-10-01T01:04:02.900Z,99.99
2017-10-01T01:05:23.300Z,99.99
2017-10-01T01:06:43.676Z,99.99
2017-10-01T01:08:03.888Z,99.99
2017-10-01T01:09:24.366Z,99.99
2017-10-01T01:10:44.926Z,99.99
2017-10-01T01:12:05.718Z,99.99
2017-10-01T01:13:25.745Z,99.99
2017-10-01T01:14:46.779Z,99.99
2017-10-01T01:16:06.882Z,99.99
2017-10-01T01:17:28.051Z,99.99
2017-10-01T01:18:48.664Z,99.99
2017-10-01T01:20:09.244Z,99.99
2017-10-01T01:21:29.691Z,99.99
2017-10-01T01:22:50.754Z,99.99
2017-10-01T01:24:11.011Z,99.99
2017-10-01T01:25:31.469Z,99.99
2017-10-01T01:26:51.828Z,99.99
2017-10-01T01:28:12.178Z,99.99
2017-10-01T01:29:32.569Z,99.99
2017-10-01T01:30:52.967Z,99.99
2017-10-01T01:32:13.384Z,99.99
2017-10-01T01:33:33.885Z,99.99
2017-10-01T01:34:54.238Z,99.99
2017-10-01T01:36:14.533Z,99.99
2017-10-01T01:37:34.859Z,99.99
2017-10-01T01:38:55.006Z,99.99
2017-10-01T01:40:15.490Z,99.99
2017-10-01T01:41:35.641Z,99.99
2017-10-01T01:42:55.776Z,99.99
2017-10-01T01:44:16.148Z,99.99
2017-10-01T01:45:36.293Z,99.99
2017-10-01T01:46:56.802Z,99.99
2017-10-01T01:48:17.147Z,99.99
2017-10-01T01:49:37.730Z,99.99
2017-10-01T01:50:58.672Z,99.99
2017-10-01T01:52:19.130Z,99.99
2017-10-01T01:53:39.259Z,99.99
2017-10-01T01:54:59.804Z,99.99
2017-10-01T01:56:21.623Z,99.99
2017-10-01T01:57:41.961Z,99.99
2017-10-01T01:59:02.070Z,99.99
2017-10-01T02:00:22.391Z,99.99
2017-10-01T02:01:42.825Z,99.99
2017-10-01T02:03:03.054Z,99.99
2017-10-01T02:04:24.345Z,99.99
2017-10-01T02:05:45.130Z,99.99
2017-10-01T02:07:05.350Z,99.99
2017-10-01T02:08:26.019Z,99.99
2017-10-01T02:09:47.204Z,99.99
2017-10-01T02:11:07.438Z,99.99
2017-10-01T02:12:28.358Z,99.99
2017-10-01T02:13:50.640Z,99.99
2017-10-01T02:15:12.020Z,99.99
2017-10-01T02:16:32.249Z,99.99
2017-10-01T02:17:53.111Z,99.99
2017-10-01T02:19:13.293Z,99.99
2017-10-01T02:20:33.579Z,99.99
2017-10-01T02:21:53.866Z,99.99
2017-10-01T02:23:14.238Z,99.99
2017-10-01T02:24:34.623Z,99.99
2017-10-01T02:25:54.812Z,99.99
2017-10-01T02:27:16.586Z,99.99
2017-10-01T02:28:36.959Z,99.99
2017-10-01T02:29:58.739Z,99.99
2017-10-01T02:31:19.252Z,99.99
2017-10-01T02:32:40.987Z,99.99
2017-10-01T02:34:01.444Z,99.99
2017-10-01T02:35:21.910Z,99.99
2017-10-01T02:36:42.533Z,99.99
2017-10-01T02:38:03.841Z,99.99
2017-10-01T02:39:24.215Z,99.99
2017-10-01T02:40:44.671Z,99.99
2017-10-01T02:42:04.975Z,99.99
2017-10-01T02:43:25.670Z,99.99
2017-10-01T02:44:46.257Z,99.99
2017-10-01T02:46:07.397Z,99.99
2017-10-01T02:47:45.133Z,99.99
2017-10-01T02:49:05.791Z,99.99
2017-10-01T02:50:26.088Z,99.99
2017-10-01T02:51:46.432Z,99.99
2017-10-01T02:53:07.706Z,99.99
2017-10-01T02:54:28.539Z,99.99
2017-10-01T02:55:48.876Z,99.99
2017-10-01T02:57:09.549Z,99.99
2017-10-01T02:58:29.848Z,99.99
2017-10-01T02:59:51.155Z,99.99
2017-10-01T03:01:11.635Z,99.99
2017-10-01T03:02:31.979Z,99.99
2017-10-01T03:03:53.107Z,99.99
2017-10-01T03:05:13.824Z,99.99
2017-10-01T03:06:34.833Z,99.99
2017-10-01T03:07:55.055Z,99.99
2017-10-01T03:09:15.502Z,99.99
2017-10-01T03:10:36.389Z,99.99
2017-10-01T03:11:56.716Z,99.99
2017-10-01T03:13:17.293Z,99.99
2017-10-01T03:14:37.656Z,99.99
2017-10-01T03:15:58.146Z,99.99
2017-10-01T03:17:18.499Z,99.99
2017-10-01T03:18:38.980Z,99.99
2017-10-01T03:21:22.351Z,99.99
2017-10-01T03:22:42.855Z,99.99
2017-10-01T03:24:03.263Z,99.99
2017-10-01T03:25:23.756Z,99.99
2017-10-01T03:26:44.057Z,99.99
2017-10-01T03:28:05.073Z,99.99
2017-10-01T03:29:25.523Z,99.99
2017-10-01T03:30:46.081Z,99.99
2017-10-01T03:32:06.920Z,99.99
2017-10-01T03:33:27.195Z,99.99
2017-10-01T03:34:47.792Z,99.99
2017-10-01T03:36:08.164Z,99.99
2017-10-01T03:37:29.291Z,99.99
2017-10-01T03:38:50.412Z,99.99
2017-10-01T03:40:11.312Z,99.99
2017-10-01T03:41:31.721Z,99.99
2017-10-01T03:42:52.210Z,99.99
2017-10-01T03:44:12.615Z,99.99
2017-10-01T03:45:33.038Z,99.99
2017-10-01T03:46:53.205Z,99.99
2017-10-01T03:48:13.648Z,99.99
2017-10-01T03:49:34.001Z,99.99
2017-10-01T03:50:54.376Z,99.99
2017-10-01T03:52:14.909Z,99.99
2017-10-01T03:53:35.287Z,99.99
2017-10-01T03:54:55.674Z,99.99
2017-10-01T03:56:16.629Z,99.99
2017-10-01T03:57:36.752Z,99.99
2017-10-01T03:58:57.470Z,99.99
2017-10-01T04:00:17.849Z,99.99
2017-10-01T04:01:38.180Z,99.99
2017-10-01T04:02:58.573Z,99.99
2017-10-01T04:04:19.368Z,99.99
2017-10-01T04:05:39.641Z,99.99
2017-10-01T04:06:59.959Z,99.99
2017-10-01T04:08:20.316Z,99.99
2017-10-01T04:09:40.750Z,99.99
2017-10-01T04:11:00.938Z,99.99
2017-10-01T04:12:21.327Z,99.99
2017-10-01T04:13:43.706Z,99.99
2017-10-01T04:15:04.411Z,99.99
2017-10-01T04:16:24.914Z,99.99
2017-10-01T04:17:45.734Z,99.99
2017-10-01T04:19:06.074Z,99.99
2017-10-01T04:20:27.240Z,99.99
2017-10-01T04:21:47.801Z,99.99
2017-10-01T04:23:08.186Z,99.99
2017-10-01T04:24:29.306Z,99.99
2017-10-01T04:25:50.287Z,99.99
2017-10-01T04:27:10.781Z,99.99
2017-10-01T04:28:31.438Z,99.99
2017-10-01T04:29:52.028Z,99.99
2017-10-01T04:31:12.394Z,99.99
2017-10-01T04:32:32.775Z,99.99
2017-10-01T04:33:54.017Z,99.99
2017-10-01T04:35:14.467Z,99.99
2017-10-01T04:36:34.909Z,99.99
2017-10-01T04:37:56.346Z,99.99
2017-10-01T04:39:16.719Z,99.99
2017-10-01T04:40:37.475Z,99.99
2017-10-01T04:41:58.136Z,99.99
2017-10-01T04:43:18.646Z,99.99
2017-10-01T04:44:39.132Z,99.99
2017-10-01T04:46:00.212Z,99.99
2017-10-01T04:47:20.601Z,99.99
2017-10-01T04:48:40.975Z,99.99
2017-10-01T04:50:01.268Z,99.99
2017-10-01T04:51:21.839Z,99.99
2017-10-01T04:52:43.113Z,99.99
2017-10-01T04:54:03.169Z,99.99
2017-10-01T04:55:23.391Z,99.99
2017-10-01T04:56:44.169Z,99.99
2017-10-01T04:58:04.739Z,99.99
2017-10-01T04:59:24.919Z,99.99
2017-10-01T05:00:45.349Z,99.99
2017-10-01T05:02:05.511Z,99.99
2017-10-01T05:03:26.030Z,99.99
2017-10-01T05:04:46.565Z,99.99
2017-10-01T05:06:06.934Z,99.99
2017-10-01T05:07:27.297Z,99.99
2017-10-01T05:08:48.123Z,99.99
2017-10-01T05:10:08.453Z,99.99
2017-10-01T05:11:28.986Z,99.99
2017-10-01T05:12:49.512Z,99.99
2017-10-01T05:14:10.191Z,99.99
2017-10-01T05:15:30.458Z,99.99
2017-10-01T05:16:51.893Z,99.99
2017-10-01T05:18:12.233Z,99.99
2017-10-01T05:19:34.050Z,99.99
2017-10-01T05:20:54.504Z,99.99
2017-10-01T05:22:15.852Z,99.99
2017-10-01T05:23:36.224Z,99.99
2017-10-01T05:24:57.214Z,99.99
2017-10-01T05:26:17.778Z,99.99
2017-10-01T05:27:38.371Z,99.99
2017-10-01T05:28:58.535Z,99.99
2017-10-01T05:30:20.555Z,99.99
2017-10-01T05:31:40.869Z,99.99
2017-10-01T05:33:01.156Z,99.99
2017-10-01T05:34:21.687Z,99.99
2017-10-01T05:35:42.741Z,99.99
2017-10-01T05:37:04.346Z,99.99
2017-10-01T05:38:24.580Z,99.99
2017-10-01T05:39:45.074Z,99.99
2017-10-01T05:41:06.194Z,99.99
2017-10-01T05:42:27.096Z,99.99
2017-10-01T05:43:47.651Z,99.99
2017-10-01T05:45:08.026Z,99.99
2017-10-01T05:46:28.740Z,99.99
2017-10-01T05:47:49.570Z,99.99
2017-10-01T05:49:10.739Z,99.99
2017-10-01T05:50:32.404Z,99.99
2017-10-01T05:51:53.835Z,99.99
2017-10-01T05:53:15.648Z,99.99
2017-10-01T05:54:36.378Z,99.99
2017-10-01T05:55:57.047Z,99.99
2017-10-01T05:57:18.713Z,99.99
2017-10-01T05:58:39.792Z,99.99
2017-10-01T06:00:00.102Z,99.99
2017-10-01T06:01:20.579Z,99.99
2017-10-01T06:02:41.458Z,99.99
2017-10-01T06:04:02.644Z,99.99
2017-10-01T06:05:56.341Z,99.99
2017-10-01T06:07:17.473Z,99.99
2017-10-01T06:08:37.956Z,99.99
2017-10-01T06:09:58.783Z,99.99
2017-10-01T06:11:19.475Z,99.99
2017-10-01T06:12:40.113Z,99.99
2017-10-01T06:14:01.052Z,99.99
2017-10-01T06:15:21.700Z,99.99
2017-10-01T06:16:42.359Z,99.99
2017-10-01T06:18:02.847Z,99.99
2017-10-01T06:19:23.686Z,99.99
2017-10-01T06:20:44.295Z,99.99
2017-10-01T06:22:05.752Z,99.99
2017-10-01T06:23:26.374Z,99.99
2017-10-01T06:24:47.024Z,99.99
2017-10-01T06:26:07.458Z,99.99
2017-10-01T06:27:28.607Z,99.99
2017-10-01T06:28:50.016Z,99.99
2017-10-01T06:30:11.809Z,99.99
2017-10-01T06:31:32.921Z,99.99
2017-10-01T06:32:53.542Z,99.99
2017-10-01T06:34:13.932Z,99.99
2017-10-01T06:35:34.380Z,99.99
2017-10-01T06:36:55.187Z,99.99
2017-10-01T06:38:15.703Z,99.99
2017-10-01T06:39:36.426Z,99.99
2017-10-01T06:40:57.494Z,99.99
2017-10-01T06:42:17.840Z,99.99
2017-10-01T06:43:38.484Z,99.99
2017-10-01T06:44:59.113Z,99.99
2017-10-01T06:46:20.595Z,99.99
2017-10-01T06:47:41.313Z,99.99
2017-10-01T06:49:01.842Z,99.99
2017-10-01T06:50:22.864Z,99.99
2017-10-01T06:51:43.627Z,99.99
2017-10-01T06:53:04.203Z,99.99
2017-10-01T06:54:24.956Z,99.99
2017-10-01T06:55:45.671Z,99.99
2017-10-01T06:57:06.808Z,99.99
2017-10-01T06:58:27.392Z,99.99
2017-10-01T06:59:47.920Z,99.99
2017-10-01T07:01:08.642Z,99.99
2017-10-01T07:02:29.318Z,99.99
2017-10-01T07:03:50.766Z,99.99
2017-10-01T07:05:12.149Z,99.99
2017-10-01T07:06:32.630Z,99.99
2017-10-01T07:07:53.637Z,99.99
2017-10-01T07:09:14.523Z,99.99
2017-10-01T07:10:34.940Z,99.99
2017-10-01T07:11:55.699Z,99.99
2017-10-01T07:13:16.433Z,99.99
2017-10-01T07:14:37.545Z,99.99
2017-10-01T07:15:58.154Z,99.99
2017-10-01T07:17:19.819Z,99.99
2017-10-01T07:18:41.554Z,99.99
2017-10-01T07:20:02.047Z,99.99
2017-10-01T07:21:24.320Z,99.99
2017-10-01T07:22:45.595Z,99.99
2017-10-01T07:24:06.678Z,99.99
2017-10-01T07:25:27.779Z,99.99
2017-10-01T07:26:48.474Z,99.70
2017-10-01T07:28:09.432Z,99.99
2017-10-01T07:29:31.437Z,99.99
2017-10-01T07:30:53.675Z,99.99
2017-10-01T07:32:15.219Z,99.46
2017-10-01T07:33:36.016Z,97.27
2017-10-01T07:34:57.204Z,97.75
2017-10-01T07:36:18.546Z,97.94
2017-10-01T07:37:39.514Z,99.27
2017-10-01T07:39:00.071Z,97.94
2017-10-01T07:40:21.340Z,99.08
2017-10-01T07:41:44.253Z,99.99
2017-10-01T07:43:07.051Z,99.99
2017-10-01T07:45:58.169Z,98.32
2017-10-01T07:47:19.380Z,98.51
2017-10-01T07:48:40.277Z,98.99
2017-10-01T07:50:01.088Z,98.13
2017-10-01T07:51:22.945Z,97.17
2017-10-01T07:52:43.666Z,98.56
2017-10-01T07:54:05.283Z,96.94
2017-10-01T07:55:27.169Z,97.85
2017-10-01T07:56:48.145Z,94.55
2017-10-01T07:58:08.812Z,92.74
2017-10-01T07:59:31.245Z,93.21
2017-10-01T08:00:51.976Z,91.40
2017-10-01T08:02:12.882Z,92.36
2017-10-01T08:03:33.674Z,94.65
2017-10-01T08:04:54.602Z,94.55
2017-10-01T08:06:16.040Z,92.93
2017-10-01T08:07:36.609Z,93.55
2017-10-01T08:08:57.954Z,94.22
2017-10-01T08:10:18.578Z,94.70
2017-10-01T08:11:39.665Z,94.55
2017-10-01T08:13:00.724Z,94.74
2017-10-01T08:14:21.525Z,95.70
2017-10-01T08:15:42.682Z,94.03
2017-10-01T08:17:06.167Z,93.55
2017-10-01T08:18:28.680Z,94.31
2017-10-01T08:19:50.684Z,94.89
2017-10-01T08:21:11.991Z,94.07
2017-10-01T08:22:33.195Z,94.89
2017-10-01T08:23:54.473Z,90.82
2017-10-01T08:25:17.097Z,87.46
2017-10-01T08:26:38.440Z,87.46
2017-10-01T08:28:00.240Z,88.03
2017-10-01T08:29:26.973Z,85.84
2017-10-01T08:30:47.937Z,89.62
2017-10-01T08:32:09.516Z,90.58
2017-10-01T08:33:31.770Z,91.78
2017-10-01T08:34:55.544Z,91.97
2017-10-01T08:36:18.229Z,92.16
2017-10-01T08:37:39.760Z,92.93
2017-10-01T08:39:01.028Z,92.93
2017-10-01T08:40:22.751Z,91.06
2017-10-01T08:41:44.059Z,89.14
2017-10-01T08:43:05.079Z,85.78
2017-10-01T08:44:26.031Z,85.68
2017-10-01T08:45:49.580Z,81.87
2017-10-01T08:47:11.086Z,80.30
2017-10-01T08:48:31.755Z,75.23
2017-10-01T08:49:52.871Z,67.78
2017-10-01T08:51:14.401Z,64.56
2017-10-01T08:52:37.080Z,64.76
2017-10-01T08:53:59.007Z,62.66
2017-10-01T08:55:21.014Z,57.77
2017-10-01T08:56:43.121Z,57.38
2017-10-01T08:58:04.169Z,55.93
2017-10-01T08:59:25.891Z,59.25
2017-10-01T09:00:46.529Z,53.96
2017-10-01T09:02:07.260Z,54.17
2017-10-01T09:03:28.963Z,56.98
2017-10-01T09:04:50.113Z,54.49
2017-10-01T09:06:11.615Z,52.29
2017-10-01T09:07:33.020Z,48.32
2017-10-01T09:08:54.122Z,50.55
2017-10-01T09:10:15.102Z,47.45
2017-10-01T09:11:36.288Z,50.31
2017-10-01T09:12:58.176Z,46.75
2017-10-01T09:14:19.419Z,44.83
2017-10-01T09:15:41.052Z,43.57
2017-10-01T09:17:02.218Z,43.30
2017-10-01T09:18:23.210Z,44.85
2017-10-01T09:19:45.429Z,42.13
2017-10-01T09:21:06.298Z,40.15
2017-10-01T09:22:27.598Z,42.69
2017-10-01T09:23:48.424Z,43.68
2017-10-01T09:25:10.227Z,37.57
2017-10-01T09:26:31.844Z,40.66
2017-10-01T09:27:52.757Z,40.99
2017-10-01T09:29:13.917Z,39.36
2017-10-01T09:30:34.832Z,41.10
2017-10-01T09:31:56.188Z,40.44
2017-10-01T09:33:17.010Z,36.28
2017-10-01T09:34:38.577Z,39.69
2017-10-01T09:35:59.960Z,40.11
2017-10-01T09:37:20.784Z,36.61
2017-10-01T09:38:41.965Z,36.47
2017-10-01T09:40:03.809Z,38.93
2017-10-01T09:41:24.813Z,37.77
2017-10-01T09:42:45.956Z,36.72
2017-10-01T09:44:07.854Z,35.18
2017-10-01T09:45:30.098Z,35.49
2017-10-01T09:46:51.731Z,34.05
2017-10-01T09:48:14.651Z,33.48
2017-10-01T09:49:35.858Z,32.60
2017-10-01T09:50:57.283Z,30.26
2017-10-01T09:52:19.275Z,28.79
2017-10-01T09:53:40.276Z,30.06
2017-10-01T09:55:01.525Z,31.62
2017-10-01T09:56:22.600Z,29.10
2017-10-01T09:57:43.704Z,28.50
2017-10-01T09:59:06.022Z,26.64
2017-10-01T10:00:27.245Z,27.41
2017-10-01T10:01:48.558Z,27.80
2017-10-01T10:03:09.711Z,27.81
2017-10-01T10:04:32.365Z,26.54
2017-10-01T10:05:53.454Z,26.43
2017-10-01T10:07:14.729Z,26.43
2017-10-01T10:08:36.429Z,25.75
2017-10-01T10:09:57.489Z,24.99
2017-10-01T10:11:19.093Z,25.65
2017-10-01T10:12:41.604Z,24.90
2017-10-01T10:14:02.776Z,25.20
2017-10-01T10:15:23.993Z,24.02
2017-10-01T10:16:44.914Z,24.79
2017-10-01T10:18:06.055Z,24.29
2017-10-01T10:19:27.125Z,24.79
2017-10-01T10:20:48.497Z,25.46
2017-10-01T10:22:09.732Z,26.63
2017-10-01T10:23:31.411Z,24.12
2017-10-01T10:24:52.578Z,24.91
2017-10-01T10:26:13.310Z,23.71
2017-10-01T10:27:34.936Z,25.84
2017-10-01T10:28:56.155Z,25.75
2017-10-01T10:30:18.967Z,25.59
2017-10-01T10:31:41.031Z,23.80
2017-10-01T10:33:03.035Z,24.88
2017-10-01T10:34:23.773Z,24.32
2017-10-01T10:35:44.615Z,22.56
2017-10-01T10:45:52.789Z,21.78
2017-10-01T10:47:13.933Z,21.97
2017-10-01T10:48:35.076Z,22.19
2017-10-01T10:49:56.123Z,19.82
2017-10-01T10:51:18.109Z,21.87
2017-10-01T10:52:39.462Z,22.76
2017-10-01T10:54:01.534Z,22.30
2017-10-01T10:56:17.911Z,21.61
2017-10-01T10:57:41.443Z,21.70
2017-10-01T10:59:02.601Z,21.71
2017-10-01T11:00:28.957Z,20.35
2017-10-01T11:01:52.001Z,20.96
2017-10-01T11:03:13.506Z,19.85
2017-10-01T11:04:35.642Z,21.10
2017-10-01T11:05:57.303Z,21.21
2017-10-01T11:07:21.503Z,21.13
2017-10-01T11:08:42.570Z,19.28
2017-10-01T11:10:04.385Z,19.49
2017-10-01T11:11:26.088Z,19.48
2017-10-01T11:12:47.463Z,19.67
2017-10-01T11:14:09.985Z,20.04
2017-10-01T11:15:31.166Z,19.74
2017-10-01T11:16:52.886Z,19.76
2017-10-01T11:18:14.599Z,19.88
2017-10-01T11:19:36.767Z,20.56
2017-10-01T11:20:59.199Z,20.66
2017-10-01T11:22:20.579Z,20.36
2017-10-01T11:23:43.689Z,20.06
2017-10-01T11:25:05.920Z,19.57
2017-10-01T11:26:27.501Z,19.68
2017-10-01T11:27:48.798Z,20.35
2017-10-01T11:29:09.945Z,20.26
2017-10-01T11:30:32.281Z,19.99
2017-10-01T11:31:53.579Z,19.29
2017-10-01T11:33:16.307Z,20.26
2017-10-01T11:34:37.498Z,20.24
2017-10-01T11:35:58.400Z,22.47
2017-10-01T11:37:19.324Z,21.42
2017-10-01T11:38:40.611Z,20.56
2017-10-01T11:40:01.735Z,20.65
2017-10-01T11:41:22.757Z,20.35
2017-10-01T11:42:43.817Z,21.00
2017-10-01T11:44:05.568Z,20.24
2017-10-01T11:45:29.221Z,19.77
2017-10-01T11:46:50.713Z,19.98
2017-10-01T11:48:11.799Z,19.00
2017-10-01T11:49:32.837Z,19.67
2017-10-01T11:50:54.437Z,20.53
2017-10-01T11:52:16.243Z,21.31
2017-10-01T11:53:37.266Z,21.70
2017-10-01T11:54:59.537Z,21.39
2017-10-01T11:56:21.926Z,23.23
2017-10-01T11:57:43.940Z,23.23
2017-10-01T11:59:05.555Z,23.24
2017-10-01T12:00:27.090Z,22.47
2017-10-01T12:01:49.742Z,21.78
2017-10-01T12:03:13.791Z,21.50
2017-10-01T12:04:35.097Z,20.24
2017-10-01T12:05:56.065Z,19.77
2017-10-01T12:17:02.251Z,21.21
2017-10-01T12:18:23.143Z,20.53
2017-10-01T12:19:44.097Z,20.73
2017-10-01T12:21:05.519Z,20.04
2017-10-01T12:22:26.402Z,19.36
2017-10-01T12:23:50.027Z,21.41
2017-10-01T12:25:11.538Z,20.23
2017-10-01T12:26:32.800Z,21.18
2017-10-01T12:27:54.244Z,21.55
2017-10-01T12:29:15.308Z,23.00
2017-10-01T12:30:37.990Z,22.72
2017-10-01T12:32:00.090Z,24.35
2017-10-01T12:33:21.723Z,25.42
2017-10-01T12:34:42.694Z,23.71
2017-10-01T12:36:06.083Z,23.30
2017-10-01T12:37:27.195Z,22.73
2017-10-01T12:38:48.598Z,23.23
2017-10-01T12:40:10.268Z,22.94
2017-10-01T12:41:31.621Z,23.02
2017-10-01T12:42:57.272Z,23.21
2017-10-01T12:44:18.845Z,22.64
2017-10-01T12:45:40.737Z,24.61
2017-10-01T12:47:01.974Z,22.85
2017-10-01T12:48:23.907Z,22.35
2017-10-01T12:49:45.217Z,23.03
2017-10-01T12:51:06.991Z,22.27
2017-10-01T12:52:28.029Z,21.68
2017-10-01T12:53:50.771Z,21.68
2017-10-01T12:55:11.796Z,21.87
2017-10-01T12:56:33.449Z,22.27
2017-10-01T12:57:56.397Z,23.24
2017-10-01T12:59:17.777Z,22.16
2017-10-01T13:00:39.888Z,23.33
2017-10-01T13:02:03.589Z,22.44
2017-10-01T13:03:25.679Z,23.22
2017-10-01T13:04:46.787Z,23.41
2017-10-01T13:06:08.039Z,22.63
2017-10-01T13:07:29.934Z,23.02
2017-10-01T13:08:51.932Z,24.45
2017-10-01T13:10:13.459Z,24.43
2017-10-01T13:11:34.360Z,23.96
2017-10-01T13:12:55.502Z,24.17
2017-10-01T13:14:16.516Z,23.69
2017-10-01T13:15:39.240Z,23.30
2017-10-01T13:17:00.518Z,24.44
2017-10-01T13:18:21.309Z,24.83
2017-10-01T13:19:42.692Z,24.46
2017-10-01T13:21:03.583Z,23.21
2017-10-01T13:22:25.005Z,24.78
2017-10-01T13:23:46.973Z,23.32
2017-10-01T13:25:09.573Z,24.10
2017-10-01T13:26:30.809Z,24.46
2017-10-01T13:27:52.481Z,23.28
2017-10-01T13:29:14.562Z,24.93
2017-10-01T13:30:35.942Z,25.27
2017-10-01T13:31:58.659Z,26.33
2017-10-01T13:33:19.969Z,26.75
2017-10-01T13:34:41.155Z,27.32
2017-10-01T13:36:02.036Z,26.23
2017-10-01T13:37:22.949Z,26.92
2017-10-01T13:38:45.084Z,27.42
2017-10-01T13:40:08.366Z,26.54
2017-10-01T13:41:29.861Z,25.19
2017-10-01T13:42:51.974Z,26.43
2017-10-01T13:44:13.252Z,28.36
2017-10-01T13:45:34.328Z,28.70
2017-10-01T13:46:55.948Z,30.54
2017-10-01T13:48:17.446Z,32.06
2017-10-01T13:49:38.785Z,31.12
2017-10-01T13:51:00.530Z,32.23
2017-10-01T13:52:24.793Z,34.50
2017-10-01T13:53:52.407Z,37.75
2017-10-01T13:55:18.185Z,36.82
2017-10-01T13:56:45.334Z,35.78
2017-10-01T13:58:07.475Z,34.75
2017-10-01T13:59:28.409Z,33.41
2017-10-01T14:00:52.432Z,31.97
2017-10-01T14:02:14.583Z,31.21
2017-10-01T14:03:35.666Z,31.86
2017-10-01T14:04:57.052Z,34.75
2017-10-01T14:06:19.792Z,34.25
2017-10-01T14:16:07.419Z,35.57
2017-10-01T14:17:28.496Z,34.62
2017-10-01T14:18:49.527Z,35.02
2017-10-01T14:20:11.327Z,34.54
2017-10-01T14:21:32.281Z,34.65
2017-10-01T14:22:53.600Z,33.51
2017-10-01T14:24:14.856Z,32.44
2017-10-01T14:25:37.591Z,32.26
2017-10-01T14:26:58.864Z,31.70
2017-10-01T14:28:19.812Z,32.37
2017-10-01T14:29:40.907Z,31.20
2017-10-01T14:31:01.856Z,31.97
2017-10-01T14:32:23.431Z,33.10
2017-10-01T14:33:44.453Z,35.78
2017-10-01T14:35:06.304Z,37.95
2017-10-01T14:36:28.010Z,40.88
2017-10-01T14:37:49.115Z,41.34
2017-10-01T14:39:10.508Z,41.92
2017-10-01T14:40:32.509Z,40.78
2017-10-01T14:41:53.285Z,42.97
2017-10-01T14:43:14.017Z,43.55
2017-10-01T14:44:35.146Z,43.65
2017-10-01T14:55:45.545Z,49.72
2017-10-01T14:57:10.190Z,49.24
2017-10-01T15:05:54.697Z,46.42
2017-10-01T15:07:15.358Z,48.33
2017-10-01T15:08:36.257Z,49.84
2017-10-01T15:09:57.761Z,50.49
2017-10-01T15:11:18.878Z,48.21
2017-10-01T15:12:40.539Z,47.85
2017-10-01T15:14:01.299Z,46.64
2017-10-01T15:15:22.159Z,44.06
2017-10-01T15:16:44.485Z,43.43
2017-10-01T15:18:05.842Z,42.39
2017-10-01T15:19:27.764Z,41.13
2017-10-01T15:20:48.507Z,42.27
2017-10-01T15:22:09.705Z,41.67
2017-10-01T15:23:32.254Z,43.96
2017-10-01T15:24:54.883Z,45.63
2017-10-01T15:26:15.651Z,49.24
2017-10-01T15:27:37.866Z,48.74
2017-10-01T15:29:00.898Z,50.34
2017-10-01T15:30:25.170Z,52.36
2017-10-01T15:31:46.000Z,52.46
2017-10-01T15:33:08.469Z,51.57
2017-10-01T15:34:32.415Z,52.08
2017-10-01T15:35:53.380Z,51.33
2017-10-01T15:37:17.205Z,49.91
2017-10-01T15:38:38.719Z,48.69
2017-10-01T15:40:01.008Z,49.63
2017-10-01T15:41:22.679Z,49.33
2017-10-01T15:42:43.775Z,49.79
2017-10-01T15:44:05.843Z,50.92
2017-10-01T15:45:26.700Z,52.53
2017-10-01T15:46:48.696Z,53.78
2017-10-01T15:48:10.768Z,54.71
2017-10-01T15:49:32.669Z,55.93
2017-10-01T15:50:53.865Z,57.08
2017-10-01T15:52:17.477Z,57.56
2017-10-01T15:53:39.445Z,58.39
2017-10-01T15:55:01.032Z,57.72
2017-10-01T15:56:22.047Z,59.36
2017-10-01T15:57:44.637Z,59.55
2017-10-01T15:59:06.306Z,60.28
2017-10-01T16:00:31.020Z,59.61
2017-10-01T16:01:54.073Z,61.05
2017-10-01T16:03:14.904Z,61.91
2017-10-01T16:04:36.718Z,62.10
2017-10-01T16:05:57.683Z,62.46
2017-10-01T16:07:20.081Z,63.42
2017-10-01T16:08:41.151Z,63.32
2017-10-01T16:10:04.611Z,63.70
2017-10-01T16:11:25.623Z,63.51
2017-10-01T16:12:49.083Z,64.09
2017-10-01T16:14:10.851Z,64.92
2017-10-01T16:15:32.567Z,65.11
2017-10-01T16:16:54.180Z,65.20
2017-10-01T16:18:15.785Z,65.88
2017-10-01T16:19:36.932Z,65.88
2017-10-01T16:20:57.774Z,65.97
2017-10-01T16:22:18.534Z,66.83
2017-10-01T16:23:40.701Z,66.80
2017-10-01T16:25:01.735Z,67.47
2017-10-01T16:26:22.780Z,68.23
2017-10-01T16:27:44.015Z,68.04
2017-10-01T16:29:05.620Z,68.33
2017-10-01T16:30:30.370Z,68.80
2017-10-01T16:31:51.367Z,69.48
2017-10-01T16:33:13.086Z,69.57
2017-10-01T16:34:34.025Z,69.95
2017-10-01T16:35:55.759Z,70.62
2017-10-01T16:37:17.076Z,70.97
2017-10-01T16:38:38.326Z,71.45
2017-10-01T16:39:59.920Z,71.64
2017-10-01T16:41:21.050Z,72.02
2017-10-01T16:42:42.203Z,72.12
2017-10-01T16:44:03.309Z,72.22
2017-10-01T16:45:27.220Z,72.31
2017-10-01T16:46:54.311Z,72.60
2017-10-01T16:48:19.907Z,72.79
2017-10-01T16:49:46.804Z,72.88
2017-10-01T16:51:09.070Z,73.55
2017-10-01T16:52:29.928Z,73.46
2017-10-01T16:53:50.926Z,73.55
2017-10-01T16:55:11.790Z,74.09
2017-10-01T16:56:32.847Z,74.28
2017-10-01T16:57:53.813Z,74.85
2017-10-01T16:59:14.766Z,74.95
2017-10-01T17:00:36.680Z,75.34
2017-10-01T17:01:57.363Z,75.14
2017-10-01T17:03:19.792Z,75.24
2017-10-01T17:04:42.325Z,75.34
2017-10-01T17:06:05.750Z,75.52
2017-10-01T17:07:26.538Z,75.81
2017-10-01T17:08:48.331Z,75.81
2017-10-01T17:10:09.906Z,76.29
2017-10-01T17:11:31.261Z,75.91
2017-10-01T17:12:55.483Z,76.10
2017-10-01T17:14:17.163Z,75.71
2017-10-01T17:15:38.436Z,75.71
2017-10-01T17:16:59.627Z,75.81
2017-10-01T17:18:22.597Z,76.48
2017-10-01T17:21:10.129Z,76.25
2017-10-01T17:22:32.468Z,76.25
2017-10-01T17:23:54.896Z,76.06
2017-10-01T17:25:18.414Z,76.64
2017-10-01T17:26:40.913Z,76.73
2017-10-01T17:28:04.518Z,76.82
2017-10-01T17:29:31.729Z,76.73
2017-10-01T17:30:55.035Z,76.92
2017-10-01T17:32:17.164Z,76.92
2017-10-01T17:33:39.329Z,76.64
2017-10-01T17:35:01.467Z,75.78
2017-10-01T17:36:24.332Z,75.01
2017-10-01T17:37:46.803Z,75.30
2017-10-01T17:39:09.682Z,75.20
2017-10-01T17:40:33.026Z,75.20
2017-10-01T17:41:54.960Z,75.49
2017-10-01T17:43:16.810Z,76.16
2017-10-01T17:44:39.909Z,76.25
2017-10-01T17:46:02.778Z,75.96
2017-10-01T17:47:27.237Z,75.30
2017-10-01T17:48:49.381Z,74.82
2017-10-01T17:50:11.734Z,75.30
2017-10-01T17:51:35.351Z,74.24
2017-10-01T17:55:38.983Z,74.34
2017-10-01T17:57:01.407Z,74.24
2017-10-01T17:58:23.676Z,73.29
2017-10-01T17:59:45.968Z,74.15
2017-10-01T18:01:11.657Z,74.91
2017-10-01T18:02:34.640Z,74.73
2017-10-01T18:04:02.865Z,73.77
2017-10-01T18:05:25.351Z,72.91
2017-10-01T18:06:49.023Z,72.18
2017-10-01T18:08:11.386Z,72.18
2017-10-01T18:09:34.458Z,72.62
2017-10-01T18:10:56.188Z,73.29
2017-10-01T18:12:18.391Z,73.00
2017-10-01T18:13:40.747Z,73.39
2017-10-01T18:15:02.697Z,73.00
2017-10-01T18:16:23.610Z,72.62
2017-10-01T18:17:45.826Z,72.53
2017-10-01T18:19:08.088Z,72.33
2017-10-01T18:20:29.929Z,71.89